createdAt,value
2023-05-06T00:00:10.088Z,8.13
2023-05-06T00:02:59.636Z,8.06
2023-05-06T00:05:28.233Z,8.01
2023-05-06T00:07:56.793Z,7.97
2023-05-06T00:10:25.597Z,7.94
2023-05-06T00:12:54.178Z,7.90
2023-05-06T00:15:23.012Z,7.86
2023-05-06T00:17:51.493Z,7.85
2023-05-06T00:20:20.712Z,7.84
2023-05-06T00:22:49.269Z,7.80
2023-05-06T00:25:18.078Z,7.76
2023-05-06T00:27:46.626Z,7.71
2023-05-06T00:30:17.113Z,7.67
2023-05-06T00:32:45.643Z,7.62
2023-05-06T00:35:14.112Z,7.58
2023-05-06T00:37:45.971Z,7.53
2023-05-06T00:40:15.168Z,7.48
2023-05-06T00:42:43.594Z,7.43
2023-05-06T00:45:12.629Z,7.38
2023-05-06T00:47:41.384Z,7.32
2023-05-06T00:50:11.112Z,7.29
2023-05-06T00:52:40.157Z,7.27
2023-05-06T00:55:10.260Z,7.25
2023-05-06T00:57:40.303Z,7.20
2023-05-06T01:00:11.360Z,7.18
2023-05-06T01:02:46.835Z,7.16
2023-05-06T01:05:17.536Z,7.13
2023-05-06T01:07:52.579Z,7.12
2023-05-06T01:10:26.842Z,7.08
2023-05-06T01:13:01.116Z,7.06
2023-05-06T01:15:34.306Z,7.04
2023-05-06T01:18:08.227Z,7.00
2023-05-06T01:20:38.272Z,6.97
2023-05-06T01:23:12.294Z,6.95
2023-05-06T01:25:41.458Z,6.95
2023-05-06T01:28:11.369Z,6.91
2023-05-06T01:30:46.162Z,6.86
2023-05-06T01:33:21.443Z,6.82
2023-05-06T01:35:56.172Z,6.78
2023-05-06T01:38:31.672Z,6.76
2023-05-06T01:41:01.697Z,6.72
2023-05-06T01:43:34.037Z,6.68
2023-05-06T01:46:03.795Z,6.67
2023-05-06T01:48:34.938Z,6.63
2023-05-06T01:51:03.968Z,6.60
2023-05-06T01:53:33.191Z,6.59
2023-05-06T01:56:01.853Z,6.55
2023-05-06T01:58:30.677Z,6.50
2023-05-06T02:00:59.668Z,6.44
2023-05-06T02:03:28.288Z,6.39
2023-05-06T02:05:56.967Z,6.37
2023-05-06T02:08:25.697Z,6.35
2023-05-06T02:10:54.205Z,6.32
2023-05-06T02:13:22.875Z,6.29
2023-05-06T02:15:53.765Z,6.27
2023-05-06T02:18:22.506Z,6.24
2023-05-06T02:20:51.106Z,6.21
2023-05-06T02:23:19.574Z,6.17
2023-05-06T02:25:49.612Z,6.13
2023-05-06T02:28:18.561Z,6.10
2023-05-06T02:30:47.212Z,6.06
2023-05-06T02:33:15.833Z,6.03
2023-05-06T02:35:44.673Z,6.01
2023-05-06T02:38:13.093Z,5.99
2023-05-06T02:40:41.902Z,5.96
2023-05-06T02:43:10.551Z,5.91
2023-05-06T02:45:39.384Z,5.89
2023-05-06T02:48:08.107Z,5.86
2023-05-06T02:50:36.594Z,5.84
2023-05-06T02:53:05.214Z,5.81
2023-05-06T02:55:33.909Z,5.80
2023-05-06T02:58:02.461Z,5.78
2023-05-06T03:00:31.316Z,5.76
2023-05-06T03:02:59.980Z,5.75
2023-05-06T03:05:28.624Z,5.78
2023-05-06T03:07:57.833Z,5.79
2023-05-06T03:10:26.615Z,5.79
2023-05-06T03:12:55.172Z,5.79
2023-05-06T03:15:23.730Z,5.81
2023-05-06T03:17:52.432Z,5.83
2023-05-06T03:20:21.985Z,5.83
2023-05-06T03:22:51.211Z,5.82
2023-05-06T03:25:19.812Z,5.84
2023-05-06T03:27:48.390Z,5.86
2023-05-06T03:30:17.215Z,5.89
2023-05-06T03:32:45.948Z,5.93
2023-05-06T03:35:14.531Z,5.96
2023-05-06T03:37:43.223Z,5.99
2023-05-06T03:40:12.590Z,6.05
2023-05-06T03:42:41.083Z,6.07
2023-05-06T03:45:10.450Z,6.07
2023-05-06T03:47:39.077Z,6.09
2023-05-06T03:50:09.300Z,6.12
2023-05-06T03:52:37.735Z,6.16
2023-05-06T03:55:08.345Z,6.17
2023-05-06T03:57:37.047Z,6.17
2023-05-06T04:00:08.559Z,6.19
2023-05-06T04:02:37.955Z,6.23
2023-05-06T04:05:08.419Z,6.25
2023-05-06T04:07:37.056Z,6.25
2023-05-06T04:10:08.588Z,6.25
2023-05-06T04:12:37.229Z,6.26
2023-05-06T04:15:08.367Z,6.29
2023-05-06T04:17:36.993Z,6.33
2023-05-06T04:20:07.519Z,6.36
2023-05-06T04:22:36.075Z,6.39
2023-05-06T04:25:06.138Z,6.41
2023-05-06T04:27:34.636Z,6.43
2023-05-06T04:30:03.351Z,6.46
2023-05-06T04:32:33.655Z,6.49
2023-05-06T04:35:02.228Z,6.54
2023-05-06T04:37:30.876Z,6.58
2023-05-06T04:40:00.468Z,6.59
2023-05-06T04:42:29.051Z,6.61
2023-05-06T04:44:58.825Z,6.65
2023-05-06T04:47:27.465Z,6.68
2023-05-06T04:49:56.611Z,6.70
2023-05-06T04:52:25.600Z,6.74
2023-05-06T04:54:55.031Z,6.77
2023-05-06T04:57:23.692Z,6.81
2023-05-06T04:59:52.205Z,6.83
2023-05-06T05:02:20.863Z,6.85
2023-05-06T05:04:49.918Z,6.89
2023-05-06T05:07:18.433Z,6.94
2023-05-06T05:09:47.150Z,6.97
2023-05-06T05:12:15.657Z,7.01
2023-05-06T05:14:44.295Z,7.03
2023-05-06T05:17:12.848Z,7.05
2023-05-06T05:19:41.488Z,7.10
2023-05-06T05:22:10.166Z,7.14
2023-05-06T05:24:38.641Z,7.18
2023-05-06T05:27:07.467Z,7.23
2023-05-06T05:29:36.153Z,7.30
2023-05-06T05:32:04.815Z,7.37
2023-05-06T05:34:33.330Z,7.44
2023-05-06T05:37:02.057Z,7.48
2023-05-06T05:39:30.642Z,7.53
2023-05-06T05:41:59.153Z,7.60
2023-05-06T05:44:27.791Z,7.67
2023-05-06T05:46:56.615Z,7.73
2023-05-06T05:49:25.422Z,7.79
2023-05-06T05:51:53.873Z,7.87
2023-05-06T05:54:22.879Z,7.92
2023-05-06T05:56:51.538Z,8.03
2023-05-06T05:59:23.407Z,8.12
2023-05-06T06:01:52.062Z,8.20
2023-05-06T06:04:21.083Z,8.28
2023-05-06T06:06:50.731Z,8.38
2023-05-06T06:09:19.580Z,8.48
2023-05-06T06:11:50.837Z,8.56
2023-05-06T06:14:19.557Z,8.62
2023-05-06T06:16:48.296Z,8.70
2023-05-06T06:19:17.252Z,8.77
2023-05-06T06:21:45.958Z,8.86
2023-05-06T06:24:14.685Z,8.96
2023-05-06T06:26:43.317Z,9.07
2023-05-06T06:29:12.041Z,9.17
2023-05-06T06:31:40.966Z,9.26
2023-05-06T06:34:12.023Z,9.36
2023-05-06T06:36:44.573Z,9.44
2023-05-06T06:39:13.779Z,9.52
2023-05-06T06:41:43.218Z,9.60
2023-05-06T06:44:11.732Z,9.72
2023-05-06T06:46:42.703Z,9.84
2023-05-06T06:49:11.408Z,9.98
2023-05-06T06:51:40.026Z,10.05
2023-05-06T06:54:08.764Z,10.09
2023-05-06T06:56:37.548Z,10.13
2023-05-06T06:59:06.411Z,10.15
2023-05-06T07:01:34.900Z,10.20
2023-05-06T07:04:05.264Z,10.26
2023-05-06T07:06:35.806Z,10.33
2023-05-06T07:09:04.510Z,10.38
2023-05-06T07:11:32.967Z,10.45
2023-05-06T07:14:01.511Z,10.52
2023-05-06T07:16:30.172Z,10.60
2023-05-06T07:18:59.524Z,10.70
2023-05-06T07:21:28.240Z,10.77
2023-05-06T07:23:56.794Z,10.84
2023-05-06T07:26:25.766Z,10.89
2023-05-06T07:28:57.463Z,10.95
2023-05-06T07:31:26.253Z,10.99
2023-05-06T07:33:54.677Z,11.03
2023-05-06T07:36:23.308Z,11.05
2023-05-06T07:38:51.933Z,11.09
2023-05-06T07:41:20.864Z,11.13
2023-05-06T07:43:49.393Z,11.19
2023-05-06T07:46:18.077Z,11.29
2023-05-06T07:48:47.026Z,11.37
2023-05-06T07:51:15.796Z,11.42
2023-05-06T07:53:44.417Z,11.44
2023-05-06T07:56:13.499Z,11.45
2023-05-06T07:58:42.274Z,11.49
2023-05-06T08:01:10.866Z,11.52
2023-05-06T08:03:39.454Z,11.56
2023-05-06T08:06:08.365Z,11.60
2023-05-06T08:08:37.142Z,11.62
2023-05-06T08:11:05.910Z,11.63
2023-05-06T08:13:34.432Z,11.62
2023-05-06T08:16:06.020Z,11.61
2023-05-06T08:18:34.663Z,11.61
2023-05-06T08:21:03.412Z,11.63
2023-05-06T08:23:32.560Z,11.63
2023-05-06T08:26:01.499Z,11.61
2023-05-06T08:28:30.985Z,11.60
2023-05-06T08:30:59.551Z,11.61
2023-05-06T08:33:30.474Z,11.63
2023-05-06T08:35:59.269Z,11.65
2023-05-06T08:38:28.134Z,11.68
2023-05-06T08:41:00.913Z,11.69
2023-05-06T08:43:32.800Z,11.70
2023-05-06T08:46:01.268Z,11.68
2023-05-06T08:48:29.954Z,11.71
2023-05-06T08:51:00.893Z,11.76
2023-05-06T08:53:29.704Z,11.80
2023-05-06T08:55:58.753Z,11.79
2023-05-06T08:58:30.100Z,11.78
2023-05-06T09:00:58.886Z,11.78
2023-05-06T09:03:27.686Z,11.78
2023-05-06T09:05:56.771Z,11.78
2023-05-06T09:08:27.692Z,11.78
2023-05-06T09:10:56.640Z,11.77
2023-05-06T09:13:25.791Z,11.76
2023-05-06T09:15:55.178Z,11.76
2023-05-06T09:18:24.676Z,11.80
2023-05-06T09:20:53.867Z,11.79
2023-05-06T09:23:23.138Z,11.81
2023-05-06T09:25:51.907Z,11.85
2023-05-06T09:28:20.955Z,11.90
2023-05-06T09:30:51.746Z,11.92
2023-05-06T09:33:21.068Z,11.95
2023-05-06T09:35:50.400Z,11.98
2023-05-06T09:38:20.888Z,12.02
2023-05-06T09:40:49.998Z,12.05
2023-05-06T09:43:22.030Z,12.04
2023-05-06T09:45:51.291Z,12.03
2023-05-06T09:48:23.563Z,11.99
2023-05-06T09:50:54.740Z,11.95
2023-05-06T09:53:24.920Z,11.93
2023-05-06T09:55:55.764Z,11.90
2023-05-06T09:58:25.364Z,11.92
2023-05-06T10:00:54.600Z,11.93
2023-05-06T10:03:24.470Z,11.93
2023-05-06T10:05:54.506Z,11.90
2023-05-06T10:08:24.756Z,11.91
2023-05-06T10:10:54.180Z,11.95
2023-05-06T10:13:26.147Z,11.99
2023-05-06T10:15:55.980Z,12.01
2023-05-06T10:18:29.751Z,12.01
2023-05-06T10:20:59.613Z,12.02
2023-05-06T10:23:43.004Z,12.01
2023-05-06T10:26:12.941Z,12.00
2023-05-06T10:28:43.254Z,12.01
2023-05-06T10:31:13.633Z,12.01
2023-05-06T10:33:45.512Z,12.02
2023-05-06T10:36:19.836Z,12.03
2023-05-06T10:38:54.270Z,12.03
2023-05-06T10:41:28.117Z,12.05
2023-05-06T10:43:59.453Z,12.06
2023-05-06T10:46:29.104Z,12.07
2023-05-06T10:49:20.409Z,12.06
2023-05-06T10:51:49.011Z,12.07
2023-05-06T10:54:24.383Z,12.08
2023-05-06T10:57:11.626Z,12.09
2023-05-06T10:59:46.718Z,12.08
2023-05-06T11:02:19.337Z,12.07
2023-05-06T11:04:53.287Z,12.07
2023-05-06T11:07:25.344Z,12.07
2023-05-06T11:09:58.873Z,12.04
2023-05-06T11:12:44.808Z,12.01
2023-05-06T11:15:35.240Z,11.98
2023-05-06T11:18:45.303Z,11.96
2023-05-06T11:21:40.453Z,11.96
2023-05-06T11:24:23.931Z,11.98
2023-05-06T11:26:53.079Z,11.96
2023-05-06T11:29:22.179Z,11.95
2023-05-06T11:31:53.560Z,11.92
2023-05-06T11:34:24.309Z,11.89
2023-05-06T11:36:58.829Z,11.88
2023-05-06T11:39:29.916Z,11.85
2023-05-06T11:42:00.154Z,11.83
2023-05-06T11:44:30.102Z,11.81
2023-05-06T11:47:00.273Z,11.78
2023-05-06T11:49:29.658Z,11.78
2023-05-06T11:51:58.148Z,11.80
2023-05-06T11:54:27.192Z,11.81
2023-05-06T11:56:56.882Z,11.81
2023-05-06T11:59:32.968Z,11.80
2023-05-06T12:02:04.263Z,11.80
2023-05-06T12:04:39.367Z,11.76
2023-05-06T12:07:09.186Z,11.72
2023-05-06T12:09:42.082Z,11.69
2023-05-06T12:12:11.671Z,11.65
2023-05-06T12:14:40.403Z,11.60
2023-05-06T12:17:09.167Z,11.53
2023-05-06T12:19:39.446Z,11.47
2023-05-06T12:22:19.296Z,11.43
2023-05-06T12:24:48.843Z,11.39
2023-05-06T12:27:30.864Z,11.34
2023-05-06T12:30:04.164Z,11.29
2023-05-06T12:32:33.826Z,11.26
2023-05-06T12:35:06.927Z,11.19
2023-05-06T12:37:36.677Z,11.13
2023-05-06T12:40:07.500Z,11.07
2023-05-06T12:42:36.781Z,11.01
2023-05-06T12:45:15.245Z,10.95
2023-05-06T12:47:54.123Z,10.90
2023-05-06T12:50:42.038Z,10.83
2023-05-06T12:53:16.172Z,10.79
2023-05-06T12:55:45.720Z,10.76
2023-05-06T12:58:18.545Z,10.72
2023-05-06T13:00:50.811Z,10.68
2023-05-06T13:03:20.770Z,10.64
2023-05-06T13:05:52.414Z,10.58
2023-05-06T13:08:21.211Z,10.53
2023-05-06T13:10:50.254Z,10.49
2023-05-06T13:13:19.112Z,10.44
2023-05-06T13:15:47.748Z,10.39
2023-05-06T13:18:16.433Z,10.34
2023-05-06T13:20:45.993Z,10.30
2023-05-06T13:23:15.035Z,10.25
2023-05-06T13:26:00.291Z,10.17
2023-05-06T13:28:32.935Z,10.08
2023-05-06T13:31:04.212Z,10.00
2023-05-06T13:33:33.735Z,9.92
2023-05-06T13:36:05.225Z,9.85
2023-05-06T13:38:34.339Z,9.80
2023-05-06T13:41:02.800Z,9.75
2023-05-06T13:43:31.649Z,9.70
2023-05-06T13:46:01.517Z,9.64
2023-05-06T13:48:30.045Z,9.56
2023-05-06T13:50:59.046Z,9.51
2023-05-06T13:53:30.255Z,9.47
2023-05-06T13:55:58.859Z,9.41
2023-05-06T13:58:27.683Z,9.33
2023-05-06T14:00:56.493Z,9.21
2023-05-06T14:03:25.725Z,9.09
2023-05-06T14:05:54.122Z,8.94
2023-05-06T14:08:22.916Z,8.84
2023-05-06T14:10:51.410Z,8.74
2023-05-06T14:13:20.034Z,8.66
2023-05-06T14:15:51.592Z,8.61
2023-05-06T14:18:20.148Z,8.55
2023-05-06T14:20:48.795Z,8.50
2023-05-06T14:23:17.267Z,8.45
2023-05-06T14:25:45.996Z,8.39
2023-05-06T14:28:15.160Z,8.35
2023-05-06T14:30:43.997Z,8.29
2023-05-06T14:33:12.618Z,8.20
2023-05-06T14:35:41.763Z,8.16
2023-05-06T14:38:10.418Z,8.11
2023-05-06T14:40:39.017Z,8.08
2023-05-06T14:43:08.390Z,8.06
2023-05-06T14:45:37.163Z,8.07
2023-05-06T14:48:07.098Z,8.07
2023-05-06T14:50:35.716Z,8.05
2023-05-06T14:53:04.813Z,8.08
2023-05-06T14:55:33.313Z,8.07
2023-05-06T14:58:04.212Z,8.06
2023-05-06T15:00:33.292Z,8.04
2023-05-06T15:03:01.692Z,8.03
2023-05-06T15:05:30.359Z,8.01
2023-05-06T15:07:59.171Z,7.99
2023-05-06T15:10:27.806Z,7.97
2023-05-06T15:12:56.510Z,7.93
2023-05-06T15:15:25.249Z,7.92
2023-05-06T15:17:53.883Z,7.92
2023-05-06T15:20:22.508Z,7.94
2023-05-06T15:22:51.119Z,7.93
2023-05-06T15:25:33.549Z,7.93
2023-05-06T15:28:05.085Z,7.91
2023-05-06T15:30:37.984Z,7.90
2023-05-06T15:33:06.954Z,7.88
2023-05-06T15:35:35.479Z,7.86
2023-05-06T15:38:04.490Z,7.85
2023-05-06T15:40:34.402Z,7.85
2023-05-06T15:43:02.825Z,7.85
2023-05-06T15:45:31.488Z,7.83
2023-05-06T15:48:00.182Z,7.81
2023-05-06T15:50:33.771Z,7.81
2023-05-06T15:53:03.289Z,7.79
2023-05-06T15:55:35.256Z,7.80
2023-05-06T15:58:12.671Z,7.79
2023-05-06T16:00:41.331Z,7.79
2023-05-06T16:03:12.271Z,7.77
2023-05-06T16:05:41.460Z,7.76
2023-05-06T16:08:10.499Z,7.75
2023-05-06T16:10:39.242Z,7.72
2023-05-06T16:13:07.857Z,7.72
2023-05-06T16:15:36.456Z,7.71
2023-05-06T16:18:05.313Z,7.71
2023-05-06T16:20:33.857Z,7.69
2023-05-06T16:23:02.673Z,7.70
2023-05-06T16:25:31.078Z,7.71
2023-05-06T16:27:59.701Z,7.68
2023-05-06T16:30:28.287Z,7.67
2023-05-06T16:32:57.265Z,7.64
2023-05-06T16:35:25.960Z,7.62
2023-05-06T16:37:54.329Z,7.61
2023-05-06T16:40:25.070Z,7.59
2023-05-06T16:42:54.020Z,7.57
2023-05-06T16:45:22.525Z,7.56
2023-05-06T16:47:51.082Z,7.56
2023-05-06T16:50:20.228Z,7.56
2023-05-06T16:52:48.661Z,7.57
2023-05-06T16:55:17.320Z,7.57
2023-05-06T16:57:45.933Z,7.56
2023-05-06T17:00:16.404Z,7.55
2023-05-06T17:02:45.668Z,7.54
2023-05-06T17:05:14.409Z,7.52
2023-05-06T17:07:42.900Z,7.50
2023-05-06T17:10:12.504Z,7.47
2023-05-06T17:12:42.166Z,7.47
2023-05-06T17:15:11.952Z,7.46
2023-05-06T17:17:40.888Z,7.45
2023-05-06T17:20:10.916Z,7.44
2023-05-06T17:22:39.952Z,7.42
2023-05-06T17:25:10.250Z,7.40
2023-05-06T17:27:38.715Z,7.38
2023-05-06T17:30:12.488Z,7.39
2023-05-06T17:32:40.713Z,7.37
2023-05-06T17:35:11.481Z,7.34
2023-05-06T17:37:40.693Z,7.34
2023-05-06T17:40:12.388Z,7.33
2023-05-06T17:42:41.158Z,7.30
2023-05-06T17:45:12.054Z,7.27
2023-05-06T17:47:40.729Z,7.24
2023-05-06T17:50:11.046Z,7.22
2023-05-06T17:52:39.738Z,7.20
2023-05-06T17:55:16.545Z,7.17
2023-05-06T17:57:46.113Z,7.13
2023-05-06T18:00:16.443Z,7.14
2023-05-06T18:02:45.705Z,7.13
2023-05-06T18:05:14.388Z,7.12
2023-05-06T18:07:42.898Z,7.11
2023-05-06T18:10:12.197Z,7.10
2023-05-06T18:12:40.854Z,7.08
2023-05-06T18:15:11.916Z,7.06
2023-05-06T18:17:40.761Z,7.06
2023-05-06T18:20:11.440Z,7.04
2023-05-06T18:22:42.295Z,7.04
2023-05-06T18:25:11.396Z,7.01
2023-05-06T18:27:40.348Z,6.98
2023-05-06T18:30:10.021Z,6.97
2023-05-06T18:32:38.915Z,6.95
2023-05-06T18:35:10.257Z,6.94
2023-05-06T18:37:38.944Z,6.94
2023-05-06T18:40:09.917Z,6.93
2023-05-06T18:42:38.373Z,6.92
2023-05-06T18:45:11.961Z,6.90
2023-05-06T18:47:40.882Z,6.88
2023-05-06T18:50:10.849Z,6.86
2023-05-06T18:52:39.202Z,6.84
2023-05-06T18:55:09.108Z,6.84
2023-05-06T18:57:38.988Z,6.85
2023-05-06T19:00:10.379Z,6.86
2023-05-06T19:02:39.012Z,6.87
2023-05-06T19:05:11.189Z,6.87
2023-05-06T19:07:39.862Z,6.86
2023-05-06T19:10:09.993Z,6.84
2023-05-06T19:12:38.444Z,6.84
2023-05-06T19:15:11.745Z,6.84
2023-05-06T19:17:40.899Z,6.84
2023-05-06T19:20:11.376Z,6.83
2023-05-06T19:22:39.887Z,6.83
2023-05-06T19:25:11.327Z,6.82
2023-05-06T19:27:39.884Z,6.81
2023-05-06T19:30:10.571Z,6.80
2023-05-06T19:32:39.774Z,6.80
2023-05-06T19:35:10.513Z,6.80
2023-05-06T19:37:39.558Z,6.79
2023-05-06T19:40:10.259Z,6.77
2023-05-06T19:42:38.812Z,6.76
2023-05-06T19:45:12.244Z,6.76
2023-05-06T19:47:41.210Z,6.73
2023-05-06T19:50:11.566Z,6.70
2023-05-06T19:52:40.552Z,6.68
2023-05-06T19:55:10.707Z,6.67
2023-05-06T19:57:39.214Z,6.66
2023-05-06T20:00:11.367Z,6.66
2023-05-06T20:02:40.848Z,6.65
2023-05-06T20:05:10.678Z,6.66
2023-05-06T20:07:39.398Z,6.65
2023-05-06T20:10:10.085Z,6.65
2023-05-06T20:12:38.597Z,6.64
2023-05-06T20:15:09.963Z,6.63
2023-05-06T20:17:38.896Z,6.62
2023-05-06T20:20:11.067Z,6.62
2023-05-06T20:22:40.378Z,6.61
2023-05-06T20:25:10.916Z,6.61
2023-05-06T20:27:39.986Z,6.61
2023-05-06T20:30:10.425Z,6.62
2023-05-06T20:32:40.469Z,6.62
2023-05-06T20:35:10.512Z,6.60
2023-05-06T20:37:40.681Z,6.59
2023-05-06T20:40:12.024Z,6.59
2023-05-06T20:42:40.538Z,6.60
2023-05-06T20:45:12.418Z,6.58
2023-05-06T20:47:41.497Z,6.58
2023-05-06T20:50:16.140Z,6.58
2023-05-06T20:52:46.317Z,6.59
2023-05-06T20:55:15.320Z,6.58
2023-05-06T20:57:44.597Z,6.60
2023-05-06T21:00:14.689Z,6.59
2023-05-06T21:02:43.492Z,6.58
2023-05-06T21:05:12.326Z,6.55
2023-05-06T21:07:41.298Z,6.52
2023-05-06T21:10:11.323Z,6.52
2023-05-06T21:12:40.071Z,6.51
2023-05-06T21:15:11.002Z,6.50
2023-05-06T21:17:39.628Z,6.50
2023-05-06T21:20:10.262Z,6.47
2023-05-06T21:22:40.965Z,6.47
2023-05-06T21:25:12.529Z,6.47
2023-05-06T21:27:41.087Z,6.46
2023-05-06T21:30:11.349Z,6.45
2023-05-06T21:32:39.932Z,6.45
2023-05-06T21:35:10.185Z,6.44
2023-05-06T21:37:39.248Z,6.41
2023-05-06T21:40:10.481Z,6.40
2023-05-06T21:42:38.976Z,6.39
2023-05-06T21:45:08.839Z,6.38
2023-05-06T21:47:37.590Z,6.39
2023-05-06T21:50:09.920Z,6.39
2023-05-06T21:52:38.674Z,6.40
2023-05-06T21:55:08.993Z,6.41
2023-05-06T21:57:38.203Z,6.40
2023-05-06T22:00:11.166Z,6.39
2023-05-06T22:02:40.256Z,6.39
2023-05-06T22:05:09.412Z,6.38
2023-05-06T22:07:38.130Z,6.38
2023-05-06T22:10:08.397Z,6.35
2023-05-06T22:12:37.097Z,6.32
2023-05-06T22:15:08.671Z,6.29
2023-05-06T22:17:37.969Z,6.26
2023-05-06T22:20:10.316Z,6.22
2023-05-06T22:22:38.995Z,6.21
2023-05-06T22:25:09.232Z,6.21
2023-05-06T22:27:38.013Z,6.20
2023-05-06T22:30:09.090Z,6.20
2023-05-06T22:32:38.032Z,6.20
2023-05-06T22:35:08.848Z,6.19
2023-05-06T22:37:37.707Z,6.20
2023-05-06T22:40:09.453Z,6.20
2023-05-06T22:42:38.598Z,6.19
2023-05-06T22:45:09.953Z,6.18
2023-05-06T22:47:38.517Z,6.18
2023-05-06T22:50:09.281Z,6.18
2023-05-06T22:52:40.927Z,6.15
2023-05-06T22:55:10.527Z,6.13
2023-05-06T22:57:39.751Z,6.10
2023-05-06T23:00:11.920Z,6.09
2023-05-06T23:02:43.146Z,6.09
2023-05-06T23:05:12.126Z,6.07
2023-05-06T23:07:40.841Z,6.04
2023-05-06T23:10:10.707Z,6.00
2023-05-06T23:12:39.689Z,5.97
2023-05-06T23:15:11.080Z,5.97
2023-05-06T23:17:40.095Z,5.96
2023-05-06T23:20:12.336Z,5.95
2023-05-06T23:22:41.192Z,5.95
2023-05-06T23:25:11.896Z,5.94
2023-05-06T23:27:41.394Z,5.96
2023-05-06T23:30:12.187Z,5.96
2023-05-06T23:32:41.056Z,5.96
2023-05-06T23:35:10.700Z,5.96
2023-05-06T23:37:39.627Z,5.97
2023-05-06T23:40:12.051Z,5.95
2023-05-06T23:42:41.422Z,5.96
2023-05-06T23:45:11.777Z,5.97
2023-05-06T23:47:41.214Z,5.96
2023-05-06T23:50:11.075Z,5.94
2023-05-06T23:52:40.250Z,5.94
2023-05-06T23:55:10.155Z,5.92
2023-05-06T23:57:39.784Z,5.91
